Time;durP1;ratioP1;P1;durP2;ratioP2;P2;SDS_P1;SDS_P2;PMS_P1;PMS_P2;Temp;Humidity;BMP_temperature;BMP_pressure;BME280_temperature;BME280_humidity;BME280_pressure;Samples;Min_cycle;Max_cycle;Signal;HPM_P1;HPM_P2
2023/05/31 00:01:12;;;;;;;12.60;3.28;;;;;;;14.76;80.72;101009.69;5099220;28;20043;-88
2023/05/31 00:03:54;;;;;;;9.77;3.83;;;;;;;14.69;81.27;100997.63;5118758;28;20032;-88
2023/05/31 00:06:24;;;;;;;11.02;3.45;;;;;;;14.63;81.98;101001.50;5098725;28;20048;-88
2023/05/31 00:08:51;;;;;;;9.13;3.53;;;;;;;14.63;82.56;101008.63;5108331;28;20127;-88
2023/05/31 00:11:40;;;;;;;7.63;3.28;;;;;;;14.66;83.22;101005.78;5077603;28;20133;-88
2023/05/31 00:14:18;;;;;;;8.35;3.25;;;;;;;14.41;83.51;100970.75;5044827;28;20045;-89
2023/05/31 00:16:47;;;;;;;7.85;2.92;;;;;;;14.51;84.30;101006.59;5049490;28;20084;-87
2023/05/31 00:19:32;;;;;;;10.05;3.53;;;;;;;14.40;84.78;100983.22;5029709;28;20049;-88
2023/05/31 00:22:29;;;;;;;10.25;3.50;;;;;;;14.45;85.97;101001.63;4988872;28;20073;-88
2023/05/31 00:25:11;;;;;;;7.45;3.55;;;;;;;14.50;86.92;101012.88;5016076;28;20050;-88
2023/05/31 00:27:52;;;;;;;9.48;3.58;;;;;;;14.30;86.69;100981.94;5015984;28;20061;-88
2023/05/31 00:30:34;;;;;;;7.03;3.40;;;;;;;14.19;87.87;100963.00;5016163;28;20077;-88
2023/05/31 00:33:17;;;;;;;14.73;3.72;;;;;;;14.48;88.85;101012.13;5043318;28;20045;-88
2023/05/31 00:35:45;;;;;;;10.73;3.50;;;;;;;14.26;89.26;100978.59;5049143;28;20050;-88
2023/05/31 00:38:13;;;;;;;11.07;3.80;;;;;;;14.23;90.20;100980.53;5024705;28;20127;-88
2023/05/31 00:40:40;;;;;;;9.80;3.70;;;;;;;14.30;90.65;100992.59;5022986;28;20107;-88
2023/05/31 00:43:06;;;;;;;7.72;3.50;;;;;;;14.34;91.45;101002.13;5068991;28;20131;-89
2023/05/31 00:45:34;;;;;;;8.75;3.70;;;;;;;14.23;92.50;100991.19;5079837;28;20569;-87
2023/05/31 00:48:01;;;;;;;7.07;3.63;;;;;;;14.30;92.97;101017.44;5097016;28;20048;-89
2023/05/31 00:50:37;;;;;;;;;;;;;;;14.25;93.45;101008.81;5102358;28;20096;-89
2023/05/31 00:53:05;;;;;;;7.65;3.70;;;;;;;14.22;94.03;101013.44;5101482;28;19915;-89
2023/05/31 00:55:32;;;;;;;9.50;3.78;;;;;;;14.19;95.35;101016.25;5099975;28;20100;-88
2023/05/31 00:57:59;;;;;;;9.43;3.83;;;;;;;14.12;95.67;100993.56;5099573;28;20120;-88
2023/05/31 01:00:28;;;;;;;11.88;4.20;;;;;;;14.14;95.85;101007.66;5101661;28;20127;-89
2023/05/31 01:03:01;;;;;;;6.30;3.75;;;;;;;14.16;96.70;101004.00;5085946;28;20044;-89
2023/05/31 01:05:28;;;;;;;8.07;3.80;;;;;;;14.02;97.80;100999.34;5100553;28;20036;-88
2023/05/31 01:07:56;;;;;;;12.00;4.18;;;;;;;14.10;98.30;101003.44;5100190;28;20044;-89
2023/05/31 01:10:36;;;;;;;9.27;3.88;;;;;;;14.09;98.75;101009.69;5101135;28;20044;-91
2023/05/31 01:13:34;;;;;;;10.00;4.07;;;;;;;14.10;99.12;101009.63;5101735;28;20078;-89
2023/05/31 01:16:15;;;;;;;9.27;3.80;;;;;;;13.92;100.00;100974.16;5102422;28;20051;-88
2023/05/31 01:18:54;;;;;;;7.75;3.75;;;;;;;13.95;100.00;100976.66;5104148;28;20051;-88
2023/05/31 01:21:44;;;;;;;8.85;3.88;;;;;;;14.02;100.00;100988.69;5097524;28;20489;-87
2023/05/31 01:24:40;;;;;;;8.10;4.00;;;;;;;13.95;100.00;100971.34;5005951;28;20039;-88
2023/05/31 01:27:15;;;;;;;6.95;3.72;;;;;;;14.02;100.00;100988.69;5001309;28;20046;-89
2023/05/31 01:29:50;;;;;;;9.80;4.47;;;;;;;14.08;100.00;100995.53;5000604;28;20042;-88
2023/05/31 01:32:20;;;;;;;10.25;4.50;;;;;;;14.04;100.00;101001.94;4982827;28;20069;-89
2023/05/31 01:34:49;;;;;;;8.35;3.97;;;;;;;13.99;100.00;100998.69;5003603;28;20455;-89
2023/05/31 01:37:20;;;;;;;10.48;4.45;;;;;;;14.10;100.00;101008.75;5012043;28;20064;-88
2023/05/31 01:40:03;;;;;;;8.57;4.15;;;;;;;14.03;100.00;101002.88;5015323;28;20076;-89
2023/05/31 01:42:31;;;;;;;10.55;4.90;;;;;;;13.87;100.00;100984.16;5014562;28;20114;-89
2023/05/31 01:44:59;;;;;;;11.10;4.63;;;;;;;13.86;100.00;100992.22;5014990;28;20034;-88
2023/05/31 01:47:41;;;;;;;10.15;4.85;;;;;;;13.61;100.00;100958.88;5004981;28;20042;-88
2023/05/31 01:50:12;;;;;;;10.43;4.28;;;;;;;13.88;100.00;101003.66;5003877;28;20046;-87
2023/05/31 01:52:40;;;;;;;9.90;4.80;;;;;;;13.94;100.00;101011.34;5003873;28;20052;-87
2023/05/31 01:55:11;;;;;;;8.60;4.22;;;;;;;13.92;100.00;101007.91;4989807;28;20054;-87
2023/05/31 01:57:42;;;;;;;9.48;4.80;;;;;;;13.91;100.00;101008.84;5000948;28;20172;-88
2023/05/31 02:00:11;;;;;;;10.60;4.72;;;;;;;13.89;100.00;101005.38;5000677;28;20046;-88
2023/05/31 02:02:57;;;;;;;12.23;4.78;;;;;;;13.83;100.00;100997.75;5002003;28;20093;-88
2023/05/31 02:05:54;;;;;;;8.93;4.40;;;;;;;13.94;100.00;101009.56;5001574;28;20054;-87
2023/05/31 02:08:25;;;;;;;8.38;4.15;;;;;;;13.91;100.00;101007.03;5000987;28;20042;-88
2023/05/31 02:10:53;;;;;;;8.98;4.65;;;;;;;13.81;100.00;100994.28;5016788;28;20097;-88
2023/05/31 02:13:33;;;;;;;9.80;4.65;;;;;;;13.83;100.00;101016.38;5023034;28;20075;-88
2023/05/31 02:16:11;;;;;;;12.38;4.82;;;;;;;13.60;100.00;100982.91;5022080;28;20046;-88
2023/05/31 02:18:39;;;;;;;8.70;4.70;;;;;;;13.53;100.00;100976.19;5021051;28;20052;-88
2023/05/31 02:21:06;;;;;;;7.63;4.45;;;;;;;13.77;100.00;101011.34;5022140;28;20046;-89
2023/05/31 02:23:47;;;;;;;16.33;5.10;;;;;;;13.74;100.00;101009.69;5137826;28;20040;-88
2023/05/31 02:26:15;;;;;;;7.80;4.68;;;;;;;13.64;100.00;101003.97;5134651;28;20035;-89
2023/05/31 02:28:41;;;;;;;13.73;5.53;;;;;;;13.68;100.00;100997.56;5136545;28;20075;-88
2023/05/31 02:31:08;;;;;;;11.88;5.10;;;;;;;13.65;100.00;101000.38;5134542;28;20067;-87
2023/05/31 02:33:37;;;;;;;11.63;5.25;;;;;;;13.67;100.00;101009.16;5098545;28;20046;-88
2023/05/31 02:36:07;;;;;;;9.68;4.55;;;;;;;13.46;100.00;100980.94;5116076;28;20086;-88
2023/05/31 02:38:35;;;;;;;9.32;4.63;;;;;;;13.58;100.00;100992.75;5096024;28;20079;-88
2023/05/31 02:41:15;;;;;;;9.27;5.13;;;;;;;13.51;100.00;100989.56;5095361;28;20052;-87
2023/05/31 02:43:44;;;;;;;11.00;4.65;;;;;;;13.48;100.00;100987.06;5112078;28;20086;-89
2023/05/31 02:46:11;;;;;;;8.95;4.50;;;;;;;13.58;100.00;101006.06;5110332;28;20107;-88
2023/05/31 02:48:39;;;;;;;13.00;4.90;;;;;;;13.47;100.00;100969.38;5103893;28;20040;-88
2023/05/31 02:51:05;;;;;;;9.30;4.82;;;;;;;13.55;100.00;100998.22;5082510;28;20055;-88
2023/05/31 02:53:35;;;;;;;11.85;5.28;;;;;;;13.38;100.00;100971.63;5084245;28;20033;-88
2023/05/31 02:56:05;;;;;;;12.80;4.70;;;;;;;13.45;100.00;100986.34;5082856;28;20139;-88
2023/05/31 02:58:35;;;;;;;11.27;5.13;;;;;;;13.43;100.00;100988.22;5084196;28;20103;-89
2023/05/31 03:01:13;;;;;;;10.70;5.13;;;;;;;13.40;100.00;100999.00;5106904;28;20044;-87
2023/05/31 03:03:46;;;;;;;8.93;4.80;;;;;;;13.29;100.00;100975.59;5104877;28;20081;-89
2023/05/31 03:06:16;;;;;;;9.18;5.07;;;;;;;13.20;100.00;100965.41;5107701;28;20040;-89
2023/05/31 03:08:44;;;;;;;6.80;4.10;;;;;;;13.31;100.00;100985.22;5105257;28;20048;-88
2023/05/31 03:11:27;;;;;;;11.07;5.30;;;;;;;13.35;100.00;101001.91;5108041;28;20127;-88
2023/05/31 03:13:56;;;;;;;8.90;4.63;;;;;;;13.30;100.00;100999.44;5117362;28;20059;-90
2023/05/31 03:16:23;;;;;;;9.65;5.40;;;;;;;13.20;100.00;100992.88;5114825;28;20040;-88
2023/05/31 03:18:52;;;;;;;11.93;4.97;;;;;;;13.17;100.00;100986.81;5116334;28;20074;-88
2023/05/31 03:21:21;;;;;;;;;;;;;;;13.27;100.00;101009.38;5118831;28;20054;-89
2023/05/31 03:23:50;;;;;;;8.63;5.18;;;;;;;13.26;100.00;101005.84;5031793;28;19921;-89
2023/05/31 03:26:17;;;;;;;12.57;5.57;;;;;;;13.24;100.00;101005.06;5034144;28;20047;-88
2023/05/31 03:28:49;;;;;;;8.23;5.68;;;;;;;13.25;100.00;101004.13;5020330;28;20062;-89
2023/05/31 03:31:18;;;;;;;9.60;5.03;;;;;;;13.30;100.00;101009.22;5012654;28;20348;-89
2023/05/31 03:33:45;;;;;;;10.90;4.80;;;;;;;13.26;100.00;101003.19;5001190;28;20053;-89
2023/05/31 03:36:12;;;;;;;12.35;5.82;;;;;;;13.23;100.00;101005.13;5000674;28;20040;-90
2023/05/31 03:38:41;;;;;;;10.43;5.50;;;;;;;13.25;100.00;101009.44;5000041;28;20057;-89
2023/05/31 03:41:10;;;;;;;11.95;5.38;;;;;;;13.16;100.00;101003.72;5005013;28;20375;-89
2023/05/31 03:43:50;;;;;;;11.65;5.25;;;;;;;13.20;100.00;101013.28;5005999;28;20050;-89
2023/05/31 03:46:18;;;;;;;8.77;4.90;;;;;;;13.03;100.00;100990.13;5003617;28;20046;-88
2023/05/31 03:48:49;;;;;;;10.65;5.18;;;;;;;13.15;100.00;101016.16;5000262;28;20046;-88
2023/05/31 03:51:16;;;;;;;9.48;4.90;;;;;;;13.14;100.00;101008.22;4990270;28;20194;-88
2023/05/31 03:53:50;;;;;;;10.63;5.47;;;;;;;13.18;100.00;101008.03;5013558;28;20038;-88
2023/05/31 03:56:22;;;;;;;8.60;5.05;;;;;;;13.26;100.00;101005.84;4995989;28;20048;-89
2023/05/31 03:58:52;;;;;;;8.98;4.95;;;;;;;13.26;100.00;101010.31;5003207;28;20135;-88
2023/05/31 04:01:22;;;;;;;9.60;5.10;;;;;;;13.25;100.00;101008.56;5004335;28;20078;-88
2023/05/31 04:03:52;;;;;;;12.85;5.82;;;;;;;13.24;100.00;101013.03;4999817;28;20050;-88
2023/05/31 04:06:20;;;;;;;7.75;4.97;;;;;;;13.17;100.00;100997.47;4999765;28;20066;-88
2023/05/31 04:08:55;;;;;;;8.57;4.68;;;;;;;13.22;100.00;101012.25;5004099;28;20118;-88
2023/05/31 04:11:24;;;;;;;11.30;4.85;;;;;;;13.29;100.00;101023.47;5004867;28;20046;-87
2023/05/31 04:13:51;;;;;;;11.52;5.05;;;;;;;13.31;100.00;101017.13;5004640;28;20157;-88
2023/05/31 04:16:20;;;;;;;10.98;5.07;;;;;;;13.30;100.00;101020.72;4984839;28;20046;-89
2023/05/31 04:18:52;;;;;;;11.52;5.40;;;;;;;13.36;100.00;101026.69;4984447;28;20096;-88
2023/05/31 04:21:26;;;;;;;10.60;5.32;;;;;;;13.36;100.00;101021.38;5001502;28;20046;-87
2023/05/31 04:23:54;;;;;;;11.05;4.93;;;;;;;13.40;100.00;101031.78;5013711;28;20110;-87
2023/05/31 04:26:22;;;;;;;12.85;5.05;;;;;;;13.44;100.00;101020.06;4990065;28;20068;-87
2023/05/31 04:28:53;;;;;;;11.02;4.97;;;;;;;13.44;100.00;101006.75;5000805;28;20042;-87
2023/05/31 04:31:24;;;;;;;9.60;4.80;;;;;;;13.58;100.00;101022.03;4999493;28;20082;-87
2023/05/31 04:34:04;;;;;;;11.43;5.15;;;;;;;13.61;100.00;101038.72;5002264;28;20042;-87
2023/05/31 04:36:38;;;;;;;12.45;4.72;;;;;;;13.65;100.00;101034.13;5063804;28;20047;-89
2023/05/31 04:39:12;;;;;;;;;;;;;;;13.67;100.00;101035.78;5001266;28;20105;-87
2023/05/31 04:41:39;;;;;;;10.63;5.35;;;;;;;13.66;100.00;101028.72;5005896;28;19918;-88
2023/05/31 04:44:10;;;;;;;14.25;5.68;;;;;;;13.73;100.00;101042.56;5065874;28;20050;-87
2023/05/31 04:46:40;;;;;;;9.73;5.03;;;;;;;13.70;100.00;101030.25;5069313;28;20046;-87
2023/05/31 04:49:08;;;;;;;10.60;5.10;;;;;;;13.78;100.00;101034.38;5068147;28;20066;-87
2023/05/31 04:51:34;;;;;;;12.05;5.35;;;;;;;13.72;100.00;101022.22;5086320;28;20099;-87
2023/05/31 04:54:15;;;;;;;11.40;5.47;;;;;;;13.89;100.00;101037.34;5080551;28;20050;-87
2023/05/31 04:56:59;;;;;;;10.75;5.32;;;;;;;13.89;100.00;101029.34;5081413;28;20046;-86
2023/05/31 04:59:29;;;;;;;8.38;5.30;;;;;;;13.97;100.00;101040.50;5085806;28;20038;-87
2023/05/31 05:02:03;;;;;;;12.75;4.85;;;;;;;13.93;100.00;101028.25;5018831;28;20042;-87
2023/05/31 05:04:30;;;;;;;10.88;5.05;;;;;;;14.07;100.00;101036.41;5086602;28;20046;-86
2023/05/31 05:06:58;;;;;;;10.73;5.10;;;;;;;14.12;100.00;101037.03;5087176;28;20075;-87
2023/05/31 05:09:27;;;;;;;12.65;5.22;;;;;;;14.18;100.00;101044.69;5088765;28;20041;-86
2023/05/31 05:11:55;;;;;;;6.35;4.47;;;;;;;14.12;100.00;101025.53;5089638;28;20069;-87
2023/05/31 05:14:23;;;;;;;11.30;5.85;;;;;;;14.29;100.00;101050.34;5023053;28;20049;-88
2023/05/31 05:16:57;;;;;;;13.48;5.68;;;;;;;14.30;100.00;101044.09;5086714;28;20046;-87
2023/05/31 05:19:24;;;;;;;9.07;5.15;;;;;;;14.23;100.00;101021.34;5090462;28;20099;-87
2023/05/31 05:21:53;;;;;;;13.10;5.53;;;;;;;14.41;100.00;101042.69;5090679;28;20049;-86
2023/05/31 05:24:23;;;;;;;12.60;5.75;;;;;;;14.33;100.00;101037.72;5037284;28;20419;-87
2023/05/31 05:26:52;;;;;;;10.20;5.32;;;;;;;14.43;100.00;101056.78;5024994;28;20357;-87
2023/05/31 05:29:19;;;;;;;11.15;5.00;;;;;;;14.47;100.00;101043.25;5095430;28;20079;-87
2023/05/31 05:31:52;;;;;;;7.65;4.70;;;;;;;14.32;100.00;101015.53;5025369;28;20136;-87
2023/05/31 05:34:21;;;;;;;8.95;5.20;;;;;;;14.47;100.00;101037.03;5074427;28;20474;-87
2023/05/31 05:36:54;;;;;;;10.70;5.10;;;;;;;14.57;100.00;101049.78;5074256;28;20052;-85
2023/05/31 05:39:25;;;;;;;8.63;4.53;;;;;;;14.38;100.00;101006.38;5088669;28;20049;-86
2023/05/31 05:42:01;;;;;;;7.03;4.60;;;;;;;14.82;100.00;101062.66;5088802;28;20567;-87
2023/05/31 05:44:41;;;;;;;8.48;4.38;;;;;;;14.74;100.00;101020.44;5078220;28;20042;-87
2023/05/31 05:47:11;;;;;;;9.85;4.65;;;;;;;14.85;100.00;101026.97;5088379;28;20042;-87
2023/05/31 05:49:42;;;;;;;10.07;4.50;;;;;;;15.04;100.00;101054.38;5086980;28;20079;-89
2023/05/31 05:52:12;;;;;;;8.32;4.65;;;;;;;15.06;98.52;101050.69;5025444;28;20050;-89
2023/05/31 05:54:40;;;;;;;7.38;4.10;;;;;;;14.92;98.40;101018.56;5090090;28;20049;-87
2023/05/31 05:57:08;;;;;;;6.80;4.00;;;;;;;15.34;97.33;101075.81;5072476;28;20054;-87
2023/05/31 05:59:41;;;;;;;11.05;4.68;;;;;;;15.45;95.48;101068.06;5020998;28;20056;-87
2023/05/31 06:02:22;;;;;;;6.70;4.00;;;;;;;15.55;93.35;101068.41;5083077;28;20449;-86
2023/05/31 06:05:06;;;;;;;12.10;4.78;;;;;;;15.59;94.92;101048.63;5081577;28;20102;-88
2023/05/31 06:07:35;;;;;;;8.15;3.58;;;;;;;15.91;94.88;101063.63;5072585;28;20042;-88
2023/05/31 06:10:08;;;;;;;7.50;3.80;;;;;;;16.21;92.61;101063.66;5070386;28;20474;-88
2023/05/31 06:12:49;;;;;;;8.25;4.45;;;;;;;16.54;89.25;101062.53;5080217;28;20050;-88
2023/05/31 06:15:20;;;;;;;6.63;3.75;;;;;;;16.87;85.90;101052.47;5087930;28;20041;-88
2023/05/31 06:17:52;;;;;;;9.32;4.15;;;;;;;17.39;82.17;101059.88;5006980;28;20049;-87
2023/05/31 06:20:26;;;;;;;7.95;4.00;;;;;;;17.78;78.47;101043.06;5083212;28;20514;-86
2023/05/31 06:23:02;;;;;;;7.03;4.18;;;;;;;18.23;73.46;101031.91;5113924;28;20062;-87
2023/05/31 06:25:33;;;;;;;8.27;3.97;;;;;;;18.92;71.74;101064.63;5087336;28;20047;-88
2023/05/31 06:28:15;;;;;;;8.93;3.83;;;;;;;19.33;68.27;101067.03;5089310;28;20038;-88
2023/05/31 06:33:45;;;;;;;8.00;3.40;;;;;;;20.17;57.33;101058.94;5074735;28;20048;-89
2023/05/31 06:36:25;;;;;;;8.40;3.70;;;;;;;20.48;56.02;101064.66;5041965;28;20063;-88
2023/05/31 06:38:52;;;;;;;7.97;2.90;;;;;;;20.39;52.38;101043.88;5086170;28;20143;-87
2023/05/31 06:41:20;;;;;;;6.82;3.28;;;;;;;20.46;55.47;101064.78;5085308;28;20055;-89
2023/05/31 06:44:01;;;;;;;5.22;2.90;;;;;;;20.69;52.21;101062.16;5071699;28;20036;-89
2023/05/31 06:46:31;;;;;;;9.20;3.10;;;;;;;21.00;51.39;101056.03;5103187;28;20495;-87
2023/05/31 06:49:05;;;;;;;8.05;2.75;;;;;;;21.04;53.07;101037.81;5108360;28;20036;-88
2023/05/31 06:51:52;;;;;;;8.35;3.30;;;;;;;21.22;49.69;101050.69;5107519;28;20051;-88
2023/05/31 06:54:26;;;;;;;5.68;2.70;;;;;;;21.37;49.29;101066.59;5109081;28;20052;-86
2023/05/31 06:57:00;;;;;;;8.38;2.67;;;;;;;21.47;48.70;101057.63;5126021;27;20052;-86
2023/05/31 06:59:41;;;;;;;5.93;2.80;;;;;;;21.80;48.95;101056.66;5109069;28;20080;-89
2023/05/31 07:02:10;;;;;;;5.28;2.30;;;;;;;22.12;47.46;101061.22;5108557;28;20040;-87
2023/05/31 07:04:53;;;;;;;6.85;2.67;;;;;;;22.24;45.56;101049.38;5092672;28;20052;-89
2023/05/31 07:07:29;;;;;;;5.70;2.83;;;;;;;22.05;45.99;101059.03;5093512;28;20063;-88
2023/05/31 07:10:00;;;;;;;5.35;2.65;;;;;;;22.02;45.82;101053.06;5106881;28;20044;-89
2023/05/31 07:13:03;;;;;;;4.47;2.45;;;;;;;22.00;46.52;101057.72;4819192;27;7969052;-88
2023/05/31 07:15:30;;;;;;;6.20;2.70;;;;;;;21.81;44.62;101030.56;5100316;28;20074;-88
2023/05/31 07:18:26;;;;;;;8.98;2.70;;;;;;;21.73;43.64;101047.34;5101661;28;20133;-88
2023/05/31 07:21:12;;;;;;;5.45;2.50;;;;;;;21.63;43.17;101035.66;5103171;28;20044;-90
2023/05/31 07:24:03;;;;;;;5.15;2.53;;;;;;;21.51;43.47;101007.88;5095960;28;20083;-88
2023/05/31 07:27:10;;;;;;;6.43;2.38;;;;;;;21.88;43.85;101040.69;5063207;28;20037;-89
2023/05/31 07:33:48;;;;;;;4.88;2.30;;;;;;;22.83;41.20;101043.38;5010583;28;20054;-88
2023/05/31 07:36:32;;;;;;;6.18;2.40;;;;;;;22.80;41.30;101040.97;5010162;28;20046;-90
2023/05/31 07:39:19;;;;;;;6.15;2.67;;;;;;;22.93;41.67;101019.97;5003245;28;20042;-89
2023/05/31 07:42:12;;;;;;;5.47;2.22;;;;;;;22.99;41.11;101024.81;5008036;28;20053;-87
2023/05/31 07:48:58;;;;;;;5.55;2.67;;;;;;;22.40;43.38;101020.09;5112192;28;20038;-88
2023/05/31 07:51:43;;;;;;;4.28;2.17;;;;;;;22.51;45.51;101035.38;5033080;28;20128;-88
2023/05/31 07:54:16;;;;;;;12.85;4.65;;;;;;;22.80;44.08;101005.84;5017494;28;20049;-87
2023/05/31 07:57:06;;;;;;;7.68;2.75;;;;;;;23.26;43.10;100991.78;5041280;28;20049;-89
2023/05/31 07:59:36;;;;;;;7.28;2.45;;;;;;;23.62;41.50;101011.91;5023404;28;20042;-90
2023/05/31 08:02:13;;;;;;;4.60;2.30;;;;;;;23.68;41.19;101005.94;5025568;28;20096;-87
2023/05/31 08:04:50;;;;;;;9.25;2.80;;;;;;;23.73;40.99;100992.88;5040257;28;20054;-88
2023/05/31 08:07:26;;;;;;;5.00;2.10;;;;;;;23.76;39.17;100949.31;5026244;28;20100;-89
2023/05/31 08:10:20;;;;;;;5.15;2.63;;;;;;;23.79;40.76;100932.78;5044011;28;20048;-89
2023/05/31 08:13:30;;;;;;;3.95;2.20;;;;;;;23.79;38.30;100966.09;5039160;28;20060;-89
2023/05/31 08:21:53;;;;;;;6.45;2.05;;;;;;;24.66;39.08;100982.19;5111692;23;20050;-88
2023/05/31 08:24:35;;;;;;;5.72;2.20;;;;;;;24.81;37.26;100953.59;5013374;28;20472;-88
2023/05/31 08:31:00;;;;;;;6.35;1.90;;;;;;;24.72;35.27;100981.56;5011184;28;20054;-89
2023/05/31 08:34:13;;;;;;;4.00;1.92;;;;;;;24.16;36.86;100978.88;5003414;28;20077;-89
2023/05/31 08:40:51;;;;;;;7.53;2.10;;;;;;;23.43;36.98;100993.81;5013646;28;20049;-89
2023/05/31 08:43:33;;;;;;;4.72;2.05;;;;;;;23.37;35.85;100979.00;5011528;28;20042;-89
2023/05/31 08:46:24;;;;;;;5.90;2.42;;;;;;;23.39;36.18;100977.00;5005095;28;20133;-89
2023/05/31 08:49:19;;;;;;;4.28;1.85;;;;;;;23.61;36.72;100981.31;4992503;28;20043;-89
2023/05/31 08:51:48;;;;;;;4.70;2.17;;;;;;;23.88;34.94;100983.31;4989881;28;20103;-87
2023/05/31 08:54:20;;;;;;;3.55;1.83;;;;;;;23.89;34.08;100978.78;4989825;28;20054;-88
2023/05/31 08:57:03;;;;;;;3.05;1.80;;;;;;;23.58;32.69;100946.47;4978837;28;20047;-89
2023/05/31 08:59:30;;;;;;;3.50;1.92;;;;;;;23.71;33.16;100973.22;4959726;29;20051;-90
2023/05/31 09:02:00;;;;;;;3.70;1.63;;;;;;;23.82;32.38;100981.19;4960111;28;20046;-88
2023/05/31 09:04:30;;;;;;;4.97;1.77;;;;;;;23.83;32.32;100982.03;4969454;29;20143;-88
2023/05/31 09:07:05;;;;;;;4.40;2.10;;;;;;;23.73;32.65;100952.31;4896723;29;20048;-89
2023/05/31 09:09:38;;;;;;;3.35;1.67;;;;;;;24.20;32.61;100977.59;4911696;29;20418;-89
2023/05/31 09:12:24;;;;;;;5.03;2.10;;;;;;;24.21;31.80;100986.56;4896520;29;20075;-89
2023/05/31 09:15:27;;;;;;;3.53;1.60;;;;;;;23.85;31.10;100980.03;4912266;29;20068;-89
2023/05/31 09:18:18;;;;;;;3.65;1.60;;;;;;;23.63;31.93;100973.06;4894995;29;20147;-88
2023/05/31 09:21:12;;;;;;;3.65;2.10;;;;;;;23.55;32.43;100983.75;4902843;29;20057;-88
2023/05/31 09:23:54;;;;;;;3.22;1.77;;;;;;;23.61;32.15;100972.38;4919758;29;20048;-90
2023/05/31 09:26:21;;;;;;;;;;;;;;;23.62;32.44;100974.06;4976335;29;20047;-88
2023/05/31 09:29:09;;;;;;;4.72;1.70;;;;;;;23.54;32.63;100961.25;4967501;28;19918;-89
2023/05/31 09:32:09;;;;;;;5.10;1.60;;;;;;;23.55;32.32;100945.91;4991392;28;20051;-88
2023/05/31 09:34:51;;;;;;;4.07;1.85;;;;;;;23.44;32.34;100958.53;4953973;28;20043;-89
2023/05/31 09:37:24;;;;;;;5.38;1.63;;;;;;;23.35;31.39;100951.25;4992388;28;20448;-90
2023/05/31 09:40:05;;;;;;;3.45;1.52;;;;;;;23.30;31.77;100936.44;4974826;28;20046;-88
2023/05/31 09:46:40;;;;;;;4.07;1.77;;;;;;;23.31;32.80;100936.31;4940534;28;20050;-90
2023/05/31 09:49:09;;;;;;;6.47;1.75;;;;;;;23.22;33.04;100937.16;4956147;29;20043;-89
2023/05/31 09:51:56;;;;;;;2.95;1.70;;;;;;;23.00;32.66;100913.94;4969093;29;20099;-89
2023/05/31 09:54:41;;;;;;;4.80;2.10;;;;;;;23.00;33.10;100946.34;4971344;28;20107;-88
2023/05/31 09:57:43;;;;;;;3.47;1.90;;;;;;;22.86;33.25;100913.47;4976631;28;20043;-88
2023/05/31 10:00:17;;;;;;;2.47;1.60;;;;;;;22.83;33.44;100902.94;4971278;29;20051;-88
2023/05/31 10:02:54;;;;;;;4.10;1.67;;;;;;;23.07;33.91;100925.06;4971388;28;20055;-87
2023/05/31 10:05:23;;;;;;;4.25;1.88;;;;;;;23.14;33.60;100931.59;4971134;29;20103;-89
2023/05/31 10:08:08;;;;;;;4.22;1.80;;;;;;;23.20;33.82;100916.69;4975157;28;20035;-89
2023/05/31 10:10:48;;;;;;;4.32;1.90;;;;;;;23.22;34.33;100922.78;4965087;28;20066;-88
2023/05/31 10:13:17;;;;;;;3.83;1.83;;;;;;;23.30;33.33;100910.28;4978144;28;20047;-88
2023/05/31 10:16:05;;;;;;;2.58;1.70;;;;;;;23.21;33.36;100894.06;4980274;28;20105;-88
2023/05/31 10:18:36;;;;;;;3.53;1.63;;;;;;;23.27;33.20;100898.91;4960976;28;20035;-87
2023/05/31 10:21:24;;;;;;;3.85;1.63;;;;;;;23.29;32.49;100886.97;4978942;28;20164;-86
2023/05/31 10:24:03;;;;;;;4.43;2.15;;;;;;;23.53;31.61;100910.03;4981635;28;20049;-88
2023/05/31 10:26:49;;;;;;;3.17;1.60;;;;;;;23.51;31.46;100883.16;4970402;28;20039;-88
2023/05/31 10:29:29;;;;;;;3.25;1.70;;;;;;;23.72;32.17;100901.91;4954064;29;20063;-89
2023/05/31 10:32:06;;;;;;;6.15;1.88;;;;;;;23.67;32.54;100867.19;4933501;29;20047;-88
2023/05/31 10:34:38;;;;;;;3.10;1.75;;;;;;;23.84;31.66;100860.19;4951501;29;20074;-88
2023/05/31 10:48:43;;;;;;;3.95;1.30;;;;;;;24.06;32.24;100854.44;5164929;27;20642;-89
2023/05/31 10:51:12;;;;;;;5.80;1.80;;;;;;;24.23;32.55;100868.19;5164480;27;20479;-89
2023/05/31 10:53:46;;;;;;;4.20;1.77;;;;;;;24.26;32.41;100843.53;5164602;27;20415;-89
2023/05/31 10:56:38;;;;;;;4.60;1.70;;;;;;;24.52;31.82;100852.69;5165266;27;20111;-89
2023/05/31 10:59:19;;;;;;;4.32;1.88;;;;;;;24.62;31.88;100875.16;5146105;27;20068;-89
2023/05/31 11:01:51;;;;;;;6.00;1.50;;;;;;;24.65;31.77;100880.28;5165788;27;20072;-89
2023/05/31 11:04:52;;;;;;;7.68;1.58;;;;;;;24.66;31.24;100868.44;5163023;27;20055;-89
2023/05/31 11:07:34;;;;;;;3.58;1.52;;;;;;;24.43;31.17;100838.19;5163819;27;20070;-89
2023/05/31 11:10:32;;;;;;;3.65;1.30;;;;;;;24.69;32.39;100868.13;5149116;27;20047;-89
2023/05/31 11:13:10;;;;;;;3.53;1.35;;;;;;;24.75;31.17;100862.09;5161146;27;20106;-90
2023/05/31 11:16:00;;;;;;;3.13;1.70;;;;;;;24.60;32.01;100843.81;5150276;27;20039;-88
2023/05/31 11:19:13;;;;;;;3.25;1.45;;;;;;;24.73;32.03;100837.00;5164170;27;20033;-87
2023/05/31 11:22:08;;;;;;;2.65;1.55;;;;;;;24.79;31.54;100831.00;5160786;27;20042;-89
2023/05/31 11:24:55;;;;;;;5.85;1.70;;;;;;;24.88;30.62;100850.03;5128712;27;20070;-88
2023/05/31 11:27:37;;;;;;;5.95;1.70;;;;;;;24.55;31.06;100819.91;5168372;27;20061;-88
2023/05/31 11:30:46;;;;;;;3.83;1.50;;;;;;;24.67;32.68;100832.22;5171321;27;20027;-88
2023/05/31 11:33:15;;;;;;;2.72;1.30;;;;;;;24.78;30.63;100828.44;5170360;27;20046;-89
2023/05/31 11:36:04;;;;;;;5.63;1.83;;;;;;;24.89;31.73;100821.94;5171948;27;20060;-89
2023/05/31 11:38:47;;;;;;;4.95;1.75;;;;;;;25.09;30.08;100831.66;5173156;27;20039;-89
2023/05/31 11:41:14;;;;;;;3.17;1.20;;;;;;;25.23;30.87;100838.41;5168739;27;20065;-89
2023/05/31 11:44:29;;;;;;;2.45;1.30;;;;;;;25.39;29.61;100849.38;5171550;27;20033;-90
2023/05/31 11:47:26;;;;;;;3.47;1.30;;;;;;;25.33;29.83;100814.78;5179210;27;20057;-90
2023/05/31 11:49:57;;;;;;;2.78;1.23;;;;;;;25.49;30.35;100826.59;5158049;27;20368;-88
2023/05/31 11:53:10;;;;;;;4.68;1.40;;;;;;;25.41;29.29;100802.13;5157492;27;20039;-88
2023/05/31 11:55:49;;;;;;;4.07;1.30;;;;;;;25.55;28.97;100816.13;5176390;27;20046;-88
2023/05/31 11:58:33;;;;;;;12.05;1.73;;;;;;;25.59;29.13;100817.50;5142037;27;20053;-89
2023/05/31 12:01:19;;;;;;;2.03;1.20;;;;;;;25.47;29.50;100773.53;5079403;28;20056;-89
2023/05/31 12:04:18;;;;;;;1.85;1.23;;;;;;;25.57;29.18;100816.81;5096603;28;20473;-89
2023/05/31 12:07:17;;;;;;;3.65;1.30;;;;;;;25.57;28.96;100825.81;5094642;28;20112;-89
2023/05/31 12:09:58;;;;;;;;;;;;;;;25.57;29.04;100822.25;5092616;28;20048;-89
2023/05/31 12:12:25;;;;;;;3.88;1.40;;;;;;;25.56;28.56;100809.69;5092313;28;19946;-88
2023/05/31 12:14:54;;;;;;;3.33;1.30;;;;;;;25.32;28.45;100775.13;5077209;28;20043;-89
2023/05/31 12:17:38;;;;;;;4.40;1.35;;;;;;;25.59;29.50;100803.94;5100540;28;20040;-89
2023/05/31 12:20:33;;;;;;;;;;;;;;;25.76;28.45;100792.22;5116473;28;20170;-86
2023/05/31 12:24:00;;;;;;;4.13;1.30;;;;;;;25.95;29.59;100800.16;5090830;28;19923;-86
2023/05/31 12:26:45;;;;;;;2.90;1.42;;;;;;;25.91;29.10;100798.75;5100411;28;20076;-87
2023/05/31 12:29:14;;;;;;;2.97;1.30;;;;;;;25.81;29.85;100762.78;5082887;28;20066;-88
2023/05/31 12:32:06;;;;;;;3.75;1.33;;;;;;;26.06;29.12;100783.56;5119454;27;20054;-88
2023/05/31 12:34:35;;;;;;;3.70;1.30;;;;;;;26.17;30.04;100779.72;5120985;27;20065;-88
2023/05/31 12:37:10;;;;;;;2.95;1.25;;;;;;;26.17;28.79;100758.84;5138256;27;20099;-90
2023/05/31 12:40:08;;;;;;;2.45;1.00;;;;;;;26.26;29.77;100758.91;5123921;27;20031;-88
2023/05/31 12:46:20;;;;;;;2.45;1.38;;;;;;;26.29;29.62;100756.72;5152088;27;20057;-88
2023/05/31 12:48:54;;;;;;;2.60;1.20;;;;;;;26.29;28.82;100762.13;5155889;27;20047;-87
2023/05/31 12:51:38;;;;;;;4.22;1.55;;;;;;;26.09;29.29;100731.69;5152651;27;20106;-88